Time;durP1;ratioP1;P1;durP2;ratioP2;P2;SDS_P1;SDS_P2;PMS_P1;PMS_P2;Temp;Humidity;BMP_temperature;BMP_pressure;BME280_temperature;BME280_humidity;BME280_pressure;Samples;Min_cycle;Max_cycle;Signal;HPM_P1;HPM_P2
2023/01/22 00:00:06;;;;;;;0.70;0.70;;;;;;;8.71;100.00;96953.41;5045081;28;20056;-60
2023/01/22 00:02:35;;;;;;;0.70;0.70;;;;;;;8.66;100.00;96952.91;5045486;28;20060;-60
2023/01/22 00:05:03;;;;;;;0.70;0.70;;;;;;;8.74;100.00;96946.38;5044914;28;20075;-60
2023/01/22 00:07:30;;;;;;;0.65;0.65;;;;;;;8.77;100.00;96949.22;5045197;28;20053;-60
2023/01/22 00:09:58;;;;;;;0.70;0.70;;;;;;;8.85;100.00;96947.41;5045383;28;20087;-61
2023/01/22 00:12:26;;;;;;;0.63;0.63;;;;;;;8.84;100.00;96951.34;5045133;28;20514;-65
2023/01/22 00:14:53;;;;;;;0.70;0.70;;;;;;;8.85;100.00;96936.38;5044812;28;20138;-65
2023/01/22 00:17:19;;;;;;;0.65;0.65;;;;;;;8.87;100.00;96950.59;5044575;28;20137;-65
2023/01/22 00:19:46;;;;;;;0.60;0.60;;;;;;;8.80;100.00;96967.81;5045122;28;20044;-66
2023/01/22 00:22:13;;;;;;;1.77;1.33;;;;;;;8.49;100.00;96900.84;5044771;28;20049;-66
2023/01/22 00:24:39;;;;;;;0.70;0.70;;;;;;;8.86;100.00;96965.59;5045171;28;20106;-66
2023/01/22 00:27:06;;;;;;;0.80;0.80;;;;;;;8.82;100.00;96968.25;5043397;28;20061;-65
2023/01/22 00:29:33;;;;;;;1.42;0.80;;;;;;;8.84;100.00;96968.72;5044811;28;20499;-61
2023/01/22 00:32:00;;;;;;;0.70;0.70;;;;;;;8.72;100.00;96971.59;5059516;28;20075;-65
2023/01/22 00:34:27;;;;;;;0.60;0.60;;;;;;;8.66;100.00;96977.75;5044373;28;20049;-65
2023/01/22 00:36:54;;;;;;;0.85;0.85;;;;;;;8.74;100.00;96980.31;5045224;28;20052;-60
2023/01/22 00:39:21;;;;;;;0.80;0.80;;;;;;;7.95;100.00;96855.81;5044524;28;20049;-61
2023/01/22 00:41:48;;;;;;;0.60;0.60;;;;;;;8.55;100.00;96938.06;5044232;28;20293;-65
2023/01/22 00:44:15;;;;;;;0.70;0.70;;;;;;;8.88;100.00;96979.84;5044627;28;20053;-61
2023/01/22 00:46:42;;;;;;;0.60;0.60;;;;;;;8.69;100.00;96955.72;5043856;28;20641;-61
2023/01/22 00:49:08;;;;;;;0.70;0.70;;;;;;;8.92;100.00;96975.19;5044715;28;20060;-66
2023/01/22 00:51:38;;;;;;;0.60;0.60;;;;;;;8.52;100.00;96911.19;5058858;28;20056;-63
2023/01/22 00:54:05;;;;;;;0.77;0.77;;;;;;;8.65;100.00;96930.00;5044163;28;20053;-66
2023/01/22 00:56:31;;;;;;;0.70;0.70;;;;;;;8.95;100.00;96968.94;5043801;28;20579;-62
2023/01/22 00:58:58;;;;;;;0.60;0.60;;;;;;;8.78;100.00;96941.72;5044378;28;20083;-67
2023/01/22 01:01:24;;;;;;;0.70;0.70;;;;;;;9.12;100.00;97002.47;5042506;28;20140;-62
2023/01/22 01:03:51;;;;;;;1.10;1.00;;;;;;;9.16;100.00;97002.56;5044594;28;20056;-61
2023/01/22 01:06:20;;;;;;;0.73;0.73;;;;;;;8.57;100.00;96916.41;5044055;28;20060;-66
2023/01/22 01:08:48;;;;;;;0.80;0.80;;;;;;;9.05;100.00;96996.00;5044119;28;20051;-62
2023/01/22 01:11:20;;;;;;;0.70;0.70;;;;;;;9.16;100.00;97003.38;5042013;28;20500;-61
2023/01/22 01:13:48;;;;;;;0.70;0.70;;;;;;;9.16;100.00;97016.38;5035030;28;20099;-66
2023/01/22 01:16:22;;;;;;;0.80;0.80;;;;;;;9.11;100.00;97006.41;5024185;28;20115;-65
2023/01/22 01:18:49;;;;;;;3.67;1.27;;;;;;;8.65;100.00;96937.47;5041315;28;20056;-61
2023/01/22 01:21:17;;;;;;;0.80;0.80;;;;;;;9.14;100.00;97015.94;5043553;28;20507;-64
2023/01/22 01:23:45;;;;;;;0.70;0.70;;;;;;;9.17;100.00;97020.72;5042301;28;20063;-60
2023/01/22 01:26:14;;;;;;;0.70;0.70;;;;;;;9.05;100.00;97020.88;5043572;28;20056;-60
2023/01/22 01:28:42;;;;;;;0.75;0.75;;;;;;;9.11;100.00;97022.19;5043601;28;20585;-66
2023/01/22 01:31:11;;;;;;;0.70;0.70;;;;;;;9.01;100.00;97029.06;5042390;28;20061;-66
2023/01/22 01:33:38;;;;;;;0.63;0.63;;;;;;;9.00;100.00;97015.63;5043376;28;20439;-66
2023/01/22 01:36:10;;;;;;;0.80;0.80;;;;;;;8.69;100.00;96977.03;5043663;28;20104;-60
2023/01/22 01:38:37;;;;;;;0.60;0.60;;;;;;;8.90;100.00;97005.94;5044217;28;20053;-61
2023/01/22 01:41:05;;;;;;;0.60;0.60;;;;;;;8.91;100.00;97012.25;5043232;28;20063;-66
2023/01/22 01:43:33;;;;;;;0.70;0.70;;;;;;;8.87;100.00;96994.78;5043751;28;20573;-67
2023/01/22 01:46:03;;;;;;;0.65;0.65;;;;;;;8.58;100.00;96970.47;5044177;28;20087;-66
2023/01/22 01:48:37;;;;;;;0.70;0.70;;;;;;;8.86;100.00;97010.59;5042845;28;20561;-60
2023/01/22 01:51:13;;;;;;;0.70;0.70;;;;;;;8.93;100.00;97009.94;5042710;28;20053;-65
2023/01/22 01:53:43;;;;;;;1.00;1.00;;;;;;;8.24;100.00;96913.25;5043995;28;20841;-60
2023/01/22 01:56:14;;;;;;;0.63;0.63;;;;;;;8.70;100.00;96973.09;5044155;28;21246;-66
2023/01/22 01:58:43;;;;;;;0.70;0.70;;;;;;;8.61;100.00;96951.22;5042468;28;20115;-61
2023/01/22 02:01:14;;;;;;;0.70;0.70;;;;;;;9.05;100.00;96998.75;5042455;28;20059;-67
2023/01/22 02:03:40;;;;;;;0.63;0.63;;;;;;;9.00;100.00;96977.75;5043478;28;20072;-67
2023/01/22 02:06:14;;;;;;;0.68;0.68;;;;;;;9.04;100.00;96994.41;5043147;28;20103;-61
2023/01/22 02:08:45;;;;;;;0.70;0.70;;;;;;;9.09;100.00;97003.19;5041701;28;20088;-61
2023/01/22 02:11:12;;;;;;;0.70;0.70;;;;;;;8.92;100.00;96959.41;5043176;28;20431;-62
2023/01/22 02:13:44;;;;;;;1.10;1.10;;;;;;;8.67;100.00;96974.63;5043261;28;20098;-61
2023/01/22 02:16:11;;;;;;;0.90;0.90;;;;;;;8.89;100.00;97015.38;5043922;28;20148;-66
2023/01/22 02:18:37;;;;;;;0.70;0.70;;;;;;;9.04;100.00;97022.03;5042230;28;20504;-60
2023/01/22 02:21:38;;;;;;;0.70;0.70;;;;;;;9.20;100.00;97020.00;5047032;28;20053;-66
2023/01/22 02:24:07;;;;;;;0.70;0.70;;;;;;;9.14;100.00;97043.56;5047371;28;20111;-66
2023/01/22 02:26:34;;;;;;;0.70;0.70;;;;;;;9.25;100.00;97039.06;5047042;28;20439;-67
2023/01/22 02:29:01;;;;;;;0.90;0.88;;;;;;;9.27;100.00;97045.03;5033304;28;20045;-61
2023/01/22 02:31:28;;;;;;;0.70;0.70;;;;;;;9.31;100.00;97048.66;5026619;28;20578;-67
2023/01/22 02:33:55;;;;;;;0.70;0.70;;;;;;;9.33;100.00;97057.41;5027030;28;20136;-66
2023/01/22 02:36:21;;;;;;;0.80;0.80;;;;;;;9.39;100.00;97047.66;5025717;28;20063;-62
2023/01/22 02:38:48;;;;;;;0.70;0.70;;;;;;;9.44;100.00;97046.59;5027100;28;20058;-67
2023/01/22 02:41:15;;;;;;;0.70;0.70;;;;;;;9.53;100.00;97045.19;5026867;28;20180;-61
2023/01/22 02:43:42;;;;;;;0.70;0.70;;;;;;;9.52;100.00;97032.56;5027110;28;20053;-61
2023/01/22 02:46:08;;;;;;;0.75;0.75;;;;;;;9.57;100.00;97043.31;5026793;28;20045;-61
2023/01/22 02:48:35;;;;;;;0.70;0.70;;;;;;;9.61;100.00;97046.94;5026403;28;20053;-67
2023/01/22 02:51:02;;;;;;;0.70;0.70;;;;;;;9.59;100.00;97032.72;5031908;28;20098;-61
2023/01/22 02:53:29;;;;;;;0.70;0.70;;;;;;;9.18;100.00;96967.09;5045136;28;20045;-61
2023/01/22 02:55:56;;;;;;;0.90;0.90;;;;;;;8.76;100.00;96921.94;5058580;28;20466;-61
2023/01/22 02:58:22;;;;;;;0.90;0.90;;;;;;;9.18;100.00;97033.41;5086332;28;20143;-61
2023/01/22 03:00:49;;;;;;;0.70;0.70;;;;;;;9.15;100.00;97014.78;5086292;28;20480;-61
2023/01/22 03:03:17;;;;;;;2.15;2.05;;;;;;;9.28;100.00;97032.81;5084851;28;20058;-68
2023/01/22 03:05:50;;;;;;;1.27;1.02;;;;;;;8.80;100.00;96994.66;5086658;28;20055;-61
2023/01/22 03:08:18;;;;;;;0.80;0.80;;;;;;;9.04;100.00;97038.63;5086775;28;20430;-67
2023/01/22 03:10:45;;;;;;;0.82;0.82;;;;;;;9.06;100.00;97036.28;5087377;28;20056;-67
2023/01/22 03:21:27;;;;;;;0.70;0.70;;;;;;;8.43;100.00;96947.25;5085972;28;20064;-66
2023/01/22 03:23:54;;;;;;;0.70;0.70;;;;;;;9.10;100.00;97037.16;5084923;28;20059;-68
2023/01/22 03:26:22;;;;;;;0.70;0.70;;;;;;;9.13;100.00;97031.72;5085880;28;20092;-61
2023/01/22 03:28:50;;;;;;;0.70;0.70;;;;;;;8.75;100.00;96970.06;5101477;28;20068;-61
2023/01/22 03:31:16;;;;;;;0.70;0.70;;;;;;;9.29;100.00;97045.50;5084417;28;20056;-61
2023/01/22 03:33:43;;;;;;;0.70;0.70;;;;;;;9.25;100.00;97043.81;5085592;28;20474;-62
2023/01/22 03:36:13;;;;;;;1.15;1.15;;;;;;;9.17;100.00;97049.19;5085690;28;20129;-61
2023/01/22 03:38:40;;;;;;;0.70;0.70;;;;;;;9.25;100.00;97050.13;5100846;28;20051;-62
2023/01/22 03:41:13;;;;;;;1.33;0.95;;;;;;;9.22;100.00;97050.84;5085772;28;20496;-63
2023/01/22 03:43:40;;;;;;;1.35;1.25;;;;;;;8.57;100.00;96988.97;5085699;28;20570;-67
2023/01/22 03:46:11;;;;;;;0.80;0.80;;;;;;;9.11;100.00;97030.47;5084534;28;20560;-67
2023/01/22 03:48:39;;;;;;;0.70;0.70;;;;;;;8.86;100.00;97005.06;5084168;28;20094;-67
2023/01/22 03:51:12;;;;;;;0.73;0.73;;;;;;;9.09;100.00;97046.59;5075654;28;20094;-66
2023/01/22 03:53:39;;;;;;;0.70;0.70;;;;;;;8.96;100.00;97012.78;5045124;28;20084;-68
2023/01/22 03:56:09;;;;;;;1.38;1.35;;;;;;;8.72;100.00;96987.38;5045728;28;20056;-63
2023/01/22 03:58:36;;;;;;;1.48;1.38;;;;;;;8.87;100.00;97044.50;5045135;28;20095;-68
2023/01/22 04:01:06;;;;;;;0.65;0.65;;;;;;;8.92;100.00;97038.72;5045904;28;20383;-63
2023/01/22 04:03:33;;;;;;;0.65;0.65;;;;;;;9.17;100.00;97065.75;5045011;28;20048;-60
2023/01/22 04:06:01;;;;;;;1.17;1.17;;;;;;;9.24;100.00;97065.13;5060259;28;20053;-60
2023/01/22 04:08:29;;;;;;;1.02;0.98;;;;;;;8.31;100.00;96949.31;5044362;28;20577;-60
2023/01/22 04:10:57;;;;;;;0.70;0.70;;;;;;;8.96;100.00;97070.00;5044885;28;20056;-66
2023/01/22 04:13:26;;;;;;;0.68;0.68;;;;;;;9.04;100.00;97066.25;5044798;28;20585;-66
2023/01/22 04:15:53;;;;;;;0.70;0.70;;;;;;;9.21;100.00;97083.22;5044820;28;20053;-60
2023/01/22 04:18:19;;;;;;;0.70;0.70;;;;;;;8.47;100.00;96952.88;5044413;28;20484;-61
2023/01/22 04:20:51;;;;;;;0.73;0.73;;;;;;;9.21;100.00;97077.69;5044965;28;20445;-68
2023/01/22 04:23:18;;;;;;;0.70;0.70;;;;;;;9.28;100.00;97082.56;5043188;28;20818;-62
2023/01/22 04:25:45;;;;;;;0.70;0.70;;;;;;;9.22;100.00;97078.50;5044886;28;20146;-66
2023/01/22 04:28:14;;;;;;;1.75;1.63;;;;;;;9.00;100.00;97063.41;5044419;28;20143;-68
2023/01/22 04:30:41;;;;;;;0.70;0.70;;;;;;;8.76;100.00;97015.84;5044759;28;20502;-62
2023/01/22 04:33:09;;;;;;;0.70;0.70;;;;;;;9.06;100.00;97074.94;5044610;28;20045;-62
2023/01/22 04:35:37;;;;;;;0.63;0.63;;;;;;;9.13;100.00;97080.66;5043303;28;20061;-67
2023/01/22 04:38:05;;;;;;;2.15;1.50;;;;;;;9.10;100.00;97081.38;5044832;28;20183;-68
2023/01/22 04:40:32;;;;;;;0.80;0.80;;;;;;;8.92;100.00;97047.81;5045125;28;20536;-63
2023/01/22 04:43:01;;;;;;;1.20;1.20;;;;;;;8.85;100.00;97030.28;5044474;28;20185;-61
2023/01/22 04:45:28;;;;;;;0.70;0.70;;;;;;;9.13;100.00;97081.47;5044762;28;20048;-64
2023/01/22 04:47:55;;;;;;;0.77;0.77;;;;;;;9.19;100.00;97080.03;5059487;28;20052;-69
2023/01/22 04:50:29;;;;;;;0.70;0.70;;;;;;;9.24;100.00;97087.22;5044367;28;20489;-62
2023/01/22 04:52:56;;;;;;;1.67;1.58;;;;;;;9.13;100.00;97069.59;5064048;28;20589;-66
2023/01/22 04:55:24;;;;;;;0.70;0.70;;;;;;;9.23;100.00;97086.41;5064524;28;20052;-66
2023/01/22 04:57:53;;;;;;;0.70;0.70;;;;;;;9.18;100.00;97094.19;5064392;28;20079;-61
2023/01/22 05:00:20;;;;;;;0.70;0.70;;;;;;;9.16;100.00;97077.16;5062468;28;20108;-67
2023/01/22 05:02:47;;;;;;;0.70;0.70;;;;;;;9.28;100.00;97099.16;5062892;28;20087;-63
2023/01/22 05:05:14;;;;;;;0.70;0.70;;;;;;;9.33;100.00;97118.22;5064226;28;20087;-68
2023/01/22 05:07:40;;;;;;;0.70;0.70;;;;;;;9.28;100.00;97082.56;5062958;28;20059;-68
2023/01/22 05:10:07;;;;;;;0.75;0.75;;;;;;;9.43;100.00;97101.09;5063875;28;20084;-61
2023/01/22 05:12:34;;;;;;;1.60;1.13;;;;;;;9.12;100.00;97092.84;5063995;28;20110;-62
2023/01/22 05:15:01;;;;;;;1.35;0.93;;;;;;;9.23;100.00;97125.09;5063794;28;20049;-62
2023/01/22 05:17:32;;;;;;;1.27;1.17;;;;;;;9.20;100.00;97116.72;5064141;28;20067;-68
2023/01/22 05:19:59;;;;;;;3.40;1.45;;;;;;;9.04;100.00;97115.97;5063745;28;20053;-62
2023/01/22 05:22:26;;;;;;;2.42;2.17;;;;;;;8.99;100.00;97102.44;5063997;28;20132;-67
2023/01/22 05:24:52;;;;;;;1.25;1.25;;;;;;;9.21;100.00;97146.00;5063806;28;20483;-63
2023/01/22 05:27:19;;;;;;;0.70;0.70;;;;;;;9.30;100.00;97151.31;5063305;28;20570;-64
2023/01/22 05:29:45;;;;;;;0.70;0.70;;;;;;;9.08;100.00;97122.38;5063352;28;20523;-61
2023/01/22 05:32:14;;;;;;;0.70;0.70;;;;;;;9.39;100.00;97154.69;5063827;28;20080;-60
2023/01/22 05:34:41;;;;;;;0.95;0.95;;;;;;;9.40;100.00;97168.16;5062265;28;20131;-60
2023/01/22 05:37:07;;;;;;;1.58;1.45;;;;;;;9.26;100.00;97162.31;5063615;28;20049;-59
2023/01/22 05:39:34;;;;;;;2.72;2.00;;;;;;;9.42;100.00;97171.34;5063864;28;20087;-60
2023/01/22 05:42:01;;;;;;;2.72;2.50;;;;;;;9.20;100.00;97180.28;5062524;28;20503;-66
2023/01/22 05:44:28;;;;;;;0.70;0.70;;;;;;;9.16;100.00;97184.94;5063616;28;20099;-67
2023/01/22 05:46:55;;;;;;;2.13;1.58;;;;;;;9.02;100.00;97140.41;5063625;28;20080;-67
2023/01/22 05:49:21;;;;;;;0.70;0.70;;;;;;;9.26;100.00;97167.84;5063794;28;20109;-62
2023/01/22 05:51:48;;;;;;;0.98;0.98;;;;;;;9.12;100.00;97154.47;5072851;28;20082;-59
2023/01/22 05:54:15;;;;;;;5.20;2.17;;;;;;;9.20;100.00;97202.41;5084690;28;20048;-65
2023/01/22 05:56:41;;;;;;;0.70;0.70;;;;;;;8.61;100.00;97119.66;5072329;28;20053;-60
2023/01/22 05:59:08;;;;;;;1.27;1.17;;;;;;;8.89;100.00;97192.16;5047512;28;20122;-61
2023/01/22 06:01:35;;;;;;;1.40;1.30;;;;;;;8.97;100.00;97209.72;5047536;28;20072;-66
2023/01/22 06:04:01;;;;;;;0.80;0.80;;;;;;;8.98;100.00;97205.78;5047423;28;20478;-60
2023/01/22 06:06:28;;;;;;;3.28;1.60;;;;;;;8.12;100.00;97089.91;5047022;28;20045;-60
2023/01/22 06:08:55;;;;;;;2.15;1.98;;;;;;;8.96;100.00;97188.78;5047280;28;20262;-66
2023/01/22 06:11:21;;;;;;;0.80;0.80;;;;;;;8.94;100.00;97215.97;5046967;28;20064;-60
2023/01/22 06:13:48;;;;;;;0.70;0.70;;;;;;;8.47;100.00;97118.47;5047127;28;20150;-61
2023/01/22 06:16:15;;;;;;;1.10;1.10;;;;;;;9.15;100.00;97222.03;5047046;28;20067;-60
2023/01/22 06:18:41;;;;;;;0.80;0.80;;;;;;;9.01;100.00;97200.38;5046889;28;20053;-60
2023/01/22 06:21:08;;;;;;;0.70;0.70;;;;;;;8.71;100.00;97163.28;5047067;28;20156;-66
2023/01/22 06:23:35;;;;;;;0.70;0.70;;;;;;;8.89;100.00;97172.03;5046879;28;20068;-65
2023/01/22 06:26:03;;;;;;;0.70;0.70;;;;;;;9.08;100.00;97192.28;5046510;28;20507;-61
2023/01/22 06:28:30;;;;;;;0.70;0.70;;;;;;;9.21;100.00;97201.25;5061869;28;20053;-66
2023/01/22 06:31:06;;;;;;;0.75;0.75;;;;;;;9.43;100.00;97250.38;5061955;28;20115;-60
2023/01/22 06:33:35;;;;;;;0.70;0.70;;;;;;;9.43;100.00;97261.44;5047047;28;20056;-65
2023/01/22 06:36:02;;;;;;;0.70;0.70;;;;;;;9.48;100.00;97252.88;5046604;28;20052;-60
2023/01/22 06:38:30;;;;;;;0.70;0.70;;;;;;;9.27;100.00;97230.22;5045449;28;20096;-61
2023/01/22 06:40:58;;;;;;;5.53;5.22;;;;;;;9.61;100.00;97265.44;5045585;28;20073;-65
2023/01/22 06:43:26;;;;;;;0.70;0.70;;;;;;;9.56;100.00;97248.31;5046931;28;20073;-62
2023/01/22 06:45:54;;;;;;;1.20;1.15;;;;;;;9.56;100.00;97274.00;5045305;28;20045;-60
2023/01/22 06:48:21;;;;;;;1.50;1.45;;;;;;;9.09;100.00;97223.44;5046585;28;20099;-66
2023/01/22 06:50:47;;;;;;;1.15;1.15;;;;;;;9.09;100.00;97273.19;5046568;28;20500;-61
2023/01/22 06:53:14;;;;;;;1.27;1.27;;;;;;;9.06;100.00;97232.44;5046660;28;20324;-66
2023/01/22 06:55:41;;;;;;;2.30;1.35;;;;;;;9.03;100.00;97269.88;5045998;28;20056;-65
2023/01/22 06:58:07;;;;;;;1.70;1.60;;;;;;;9.04;100.00;97279.00;5046147;28;20041;-60
2023/01/22 07:00:34;;;;;;;1.02;1.02;;;;;;;9.25;100.00;97275.97;5045749;28;20526;-60
2023/01/22 07:03:05;;;;;;;0.70;0.70;;;;;;;9.26;100.00;97283.91;5046342;28;20052;-64
2023/01/22 07:05:32;;;;;;;0.80;0.80;;;;;;;9.00;100.00;97291.91;5045708;28;20139;-66
2023/01/22 07:07:58;;;;;;;0.82;0.82;;;;;;;9.13;100.00;97298.97;5045575;28;20499;-60
2023/01/22 07:10:25;;;;;;;4.88;1.23;;;;;;;8.70;100.00;97250.06;5046494;28;20064;-61
2023/01/22 07:12:57;;;;;;;0.70;0.70;;;;;;;8.95;100.00;97294.91;5045855;28;20536;-66
2023/01/22 07:15:25;;;;;;;0.70;0.70;;;;;;;8.21;100.00;97193.44;5046043;28;20122;-62
2023/01/22 07:17:52;;;;;;;1.00;1.00;;;;;;;8.98;100.00;97310.78;5044380;28;20098;-66
2023/01/22 07:20:20;;;;;;;0.70;0.70;;;;;;;9.16;100.00;97306.53;5047912;28;20048;-66
2023/01/22 07:22:47;;;;;;;1.05;1.05;;;;;;;9.13;100.00;97301.72;5065452;28;20515;-61
2023/01/22 07:25:14;;;;;;;0.60;0.60;;;;;;;9.19;100.00;97300.31;5063692;28;20063;-61
2023/01/22 07:27:42;;;;;;;1.00;1.00;;;;;;;8.89;100.00;97275.03;5049565;28;20056;-66
2023/01/22 07:30:09;;;;;;;0.70;0.70;;;;;;;9.05;100.00;97355.19;5045780;28;20132;-68
2023/01/22 07:32:36;;;;;;;0.90;0.90;;;;;;;8.84;100.00;97299.34;5045215;28;20088;-60
2023/01/22 07:35:03;;;;;;;0.63;0.63;;;;;;;9.01;100.00;97321.13;5052635;28;20591;-60
2023/01/22 07:37:29;;;;;;;0.70;0.70;;;;;;;9.07;100.00;97323.28;5063217;28;20088;-61
2023/01/22 07:39:56;;;;;;;0.75;0.75;;;;;;;9.04;100.00;97309.38;5045687;28;20130;-62
2023/01/22 07:42:23;;;;;;;1.55;1.45;;;;;;;9.01;100.00;97315.59;5043984;28;20077;-60
2023/01/22 07:44:49;;;;;;;1.30;1.20;;;;;;;8.88;100.00;97323.13;5045679;28;20106;-68
2023/01/22 07:47:16;;;;;;;0.90;0.90;;;;;;;8.69;100.00;97275.25;5043650;28;20131;-60
2023/01/22 07:49:42;;;;;;;0.60;0.60;;;;;;;9.13;100.00;97323.84;5044866;28;20048;-66
2023/01/22 07:52:09;;;;;;;0.70;0.70;;;;;;;9.08;100.00;97322.13;5045481;28;20064;-60
2023/01/22 07:54:36;;;;;;;0.70;0.70;;;;;;;9.16;100.00;97335.00;5057362;28;20084;-63
2023/01/22 07:57:03;;;;;;;0.70;0.70;;;;;;;9.00;100.00;97286.38;5064911;28;20502;-66
2023/01/22 07:59:30;;;;;;;0.70;0.70;;;;;;;9.28;100.00;97345.16;5064169;28;20056;-65
2023/01/22 08:01:56;;;;;;;0.90;0.90;;;;;;;9.31;100.00;97341.69;5064412;28;20048;-60
2023/01/22 08:04:24;;;;;;;0.70;0.70;;;;;;;9.34;100.00;97343.75;5065179;28;20058;-65
2023/01/22 08:06:51;;;;;;;1.38;1.27;;;;;;;9.31;100.00;97341.69;5058417;28;20060;-61
2023/01/22 08:09:23;;;;;;;1.73;1.67;;;;;;;9.05;100.00;97333.09;5044844;28;20072;-66
2023/01/22 08:11:51;;;;;;;0.70;0.70;;;;;;;9.19;100.00;97327.94;5044613;28;20048;-66
2023/01/22 08:14:18;;;;;;;0.85;0.85;;;;;;;8.82;100.00;97263.00;5058699;28;20067;-60
2023/01/22 08:16:46;;;;;;;0.85;0.85;;;;;;;9.18;100.00;97337.41;5063696;28;20520;-60
2023/01/22 08:19:13;;;;;;;1.52;1.45;;;;;;;9.03;100.00;97316.06;5064890;28;20106;-65
2023/01/22 08:21:39;;;;;;;26.27;4.95;;;;;;;8.72;100.00;97277.31;5063950;28;20044;-61
2023/01/22 08:24:07;;;;;;;1.15;1.15;;;;;;;9.18;100.00;97316.06;5064547;28;20092;-61
2023/01/22 08:26:34;;;;;;;0.70;0.70;;;;;;;9.07;100.00;97292.09;5063551;28;20687;-66
2023/01/22 08:29:00;;;;;;;3.05;1.58;;;;;;;9.22;100.00;97321.69;5063083;28;20067;-62
2023/01/22 08:31:32;;;;;;;0.70;0.70;;;;;;;9.20;100.00;97337.81;5051464;28;20045;-61
2023/01/22 08:33:59;;;;;;;0.70;0.70;;;;;;;8.90;100.00;97281.34;5044427;28;20056;-67
2023/01/22 08:36:26;;;;;;;0.75;0.75;;;;;;;9.30;100.00;97340.09;5044196;28;20045;-66
2023/01/22 08:38:53;;;;;;;1.90;1.40;;;;;;;9.31;100.00;97352.72;5044541;28;20052;-61
2023/01/22 08:41:20;;;;;;;0.70;0.70;;;;;;;9.43;100.00;97380.31;5053567;28;20056;-68
2023/01/22 08:43:46;;;;;;;0.70;0.70;;;;;;;9.60;100.00;97355.09;5053453;28;20508;-61
2023/01/22 08:46:13;;;;;;;0.75;0.75;;;;;;;9.67;100.00;97366.34;5047584;28;20617;-68
2023/01/22 08:48:42;;;;;;;0.70;0.70;;;;;;;9.59;100.00;97347.16;5042402;28;20048;-67
2023/01/22 08:51:10;;;;;;;2.10;2.00;;;;;;;9.59;100.00;97331.38;5044074;28;20052;-66
2023/01/22 08:53:37;;;;;;;0.70;0.70;;;;;;;9.64;100.00;97328.31;5062238;28;20585;-67
2023/01/22 08:56:04;;;;;;;1.00;1.00;;;;;;;9.88;100.00;97372.41;5064174;28;20052;-62
2023/01/22 08:58:31;;;;;;;0.90;0.90;;;;;;;9.74;100.00;97372.03;5063929;28;20053;-62
2023/01/22 09:00:58;;;;;;;0.80;0.80;;;;;;;9.90;100.00;97363.75;5061743;28;20091;-62
2023/01/22 09:03:25;;;;;;;1.45;1.35;;;;;;;9.71;100.00;97353.41;5063441;28;20444;-61
2023/01/22 09:05:52;;;;;;;0.70;0.70;;;;;;;9.15;100.00;97274.53;5063337;28;20501;-61
2023/01/22 09:08:19;;;;;;;0.98;0.98;;;;;;;9.54;100.00;97326.09;5062408;28;20048;-62
2023/01/22 09:10:45;;;;;;;1.02;0.90;;;;;;;9.80;100.00;97376.16;5062406;28;20049;-67
2023/01/22 09:13:12;;;;;;;0.77;0.77;;;;;;;9.59;100.00;97363.75;5063926;28;20140;-61
2023/01/22 09:15:41;;;;;;;0.80;0.80;;;;;;;9.77;100.00;97371.31;5054109;28;20048;-67
2023/01/22 09:18:07;;;;;;;1.80;1.70;;;;;;;9.54;100.00;97339.94;5044031;28;20280;-67
2023/01/22 09:20:34;;;;;;;0.80;0.80;;;;;;;9.81;100.00;97388.03;5043999;28;20088;-62
2023/01/22 09:23:00;;;;;;;1.98;1.88;;;;;;;9.62;100.00;97390.69;5042306;28;20049;-61
2023/01/22 09:25:28;;;;;;;0.90;0.90;;;;;;;9.68;100.00;97392.84;5062017;28;20052;-68
2023/01/22 09:27:59;;;;;;;0.80;0.80;;;;;;;9.75;100.00;97392.22;5063062;28;20060;-62
2023/01/22 09:30:28;;;;;;;1.00;1.00;;;;;;;9.60;100.00;97370.88;5073017;28;20048;-66
2023/01/22 09:32:56;;;;;;;0.70;0.70;;;;;;;9.76;100.00;97386.34;5087828;28;20093;-67
2023/01/22 09:35:23;;;;;;;0.80;0.80;;;;;;;9.06;100.00;97279.41;5086483;28;20063;-62
2023/01/22 09:37:49;;;;;;;1.65;1.65;;;;;;;9.37;100.00;97318.16;5085828;28;20056;-67
2023/01/22 09:40:28;;;;;;;0.80;0.80;;;;;;;9.57;100.00;97317.09;5086500;28;20056;-67
2023/01/22 09:43:06;;;;;;;0.70;0.70;;;;;;;9.96;100.00;97363.13;5087579;28;20461;-61
2023/01/22 09:45:37;;;;;;;1.50;1.40;;;;;;;9.33;100.00;97250.09;5072459;28;20413;-63
2023/01/22 09:48:11;;;;;;;1.15;1.08;;;;;;;9.77;100.00;97320.75;5047368;28;20447;-62
2023/01/22 09:50:40;;;;;;;0.70;0.70;;;;;;;9.81;100.00;97355.63;5047607;28;20061;-66
2023/01/22 09:53:14;;;;;;;0.88;0.88;;;;;;;9.89;100.00;97351.06;5060829;28;20428;-62
2023/01/22 09:55:47;;;;;;;1.52;1.52;;;;;;;9.97;100.00;97364.75;5065903;28;20060;-62
2023/01/22 09:58:17;;;;;;;1.10;1.10;;;;;;;9.96;100.00;97379.72;5067463;28;20383;-67
2023/01/22 10:00:50;;;;;;;1.48;1.48;;;;;;;9.86;100.00;97357.31;5060936;28;20080;-62
2023/01/22 10:03:40;;;;;;;2.45;1.88;;;;;;;9.79;100.00;97374.56;5045704;28;20057;-63
2023/01/22 10:06:20;;;;;;;0.80;0.80;;;;;;;9.62;100.00;97341.72;5047447;28;20092;-66
2023/01/22 10:09:15;;;;;;;0.80;0.80;;;;;;;9.56;100.00;97326.56;5046362;28;20107;-67
2023/01/22 10:11:48;;;;;;;0.80;0.80;;;;;;;9.93;100.00;97369.38;5058476;28;20056;-63
2023/01/22 10:14:17;;;;;;;2.05;1.88;;;;;;;9.59;100.00;97292.66;5065734;28;20060;-67
2023/01/22 10:16:47;;;;;;;2.50;1.80;;;;;;;9.57;100.00;97306.03;5066821;28;20588;-62
2023/01/22 10:19:26;;;;;;;1.77;1.33;;;;;;;9.63;100.00;97321.19;5061732;28;20566;-67
2023/01/22 10:22:06;;;;;;;0.77;0.77;;;;;;;9.72;100.00;97343.94;5047074;28;20048;-61
2023/01/22 10:24:32;;;;;;;1.38;1.38;;;;;;;9.28;100.00;97270.53;5045305;28;20319;-67
2023/01/22 10:27:10;;;;;;;1.52;1.42;;;;;;;9.71;100.00;97334.03;5053720;28;20121;-67
2023/01/22 10:29:37;;;;;;;0.70;0.70;;;;;;;9.74;100.00;97333.31;5067058;28;20063;-61
2023/01/22 10:32:23;;;;;;;0.80;0.80;;;;;;;9.86;100.00;97341.53;5066361;28;20080;-67
2023/01/22 10:35:20;;;;;;;0.80;0.80;;;;;;;9.62;100.00;97313.25;5066379;28;20135;-67
2023/01/22 10:37:55;;;;;;;1.23;1.17;;;;;;;9.67;100.00;97355.28;5066517;28;20056;-67
2023/01/22 10:40:26;;;;;;;2.28;2.00;;;;;;;9.69;100.00;97349.41;5065721;28;20141;-61
2023/01/22 10:43:19;;;;;;;1.20;1.20;;;;;;;9.72;100.00;97345.91;5066139;28;20056;-62
2023/01/22 10:45:54;;;;;;;3.57;2.00;;;;;;;9.80;100.00;97356.78;5047263;28;20049;-61
2023/01/22 10:48:21;;;;;;;0.70;0.70;;;;;;;9.87;100.00;97353.38;5046620;28;20057;-62
2023/01/22 10:51:13;;;;;;;0.80;0.80;;;;;;;9.90;100.00;97347.94;5046750;28;20064;-62
2023/01/22 10:53:53;;;;;;;1.02;1.02;;;;;;;9.94;100.00;97348.81;5048441;28;20057;-62
2023/01/22 10:56:31;;;;;;;1.42;1.42;;;;;;;9.99;100.00;97353.31;5066365;28;20056;-62
2023/01/22 10:59:02;;;;;;;5.63;2.38;;;;;;;9.96;100.00;97354.81;5064750;28;20135;-62
2023/01/22 11:01:38;;;;;;;0.80;0.80;;;;;;;10.01;100.00;97349.00;5066044;28;20049;-64
2023/01/22 11:04:34;;;;;;;1.67;1.58;;;;;;;10.10;100.00;97357.94;5054422;28;20491;-65
2023/01/22 11:07:07;;;;;;;4.88;2.60;;;;;;;9.83;100.00;97306.25;5049468;28;20107;-65
2023/01/22 11:09:43;;;;;;;1.00;1.00;;;;;;;9.94;100.00;97321.16;5045902;28;20073;-62
2023/01/22 11:12:21;;;;;;;0.80;0.80;;;;;;;10.25;100.00;97332.22;5058592;28;20086;-61
2023/01/22 11:15:11;;;;;;;3.40;3.10;;;;;;;10.42;100.00;97331.81;5086347;28;20736;-65
2023/01/22 11:17:45;;;;;;;0.77;0.77;;;;;;;10.79;100.00;97356.31;5086428;28;20060;-62
2023/01/22 11:20:21;;;;;;;0.80;0.80;;;;;;;10.93;100.00;97356.63;5059738;28;20076;-66
2023/01/22 11:23:18;;;;;;;0.90;0.90;;;;;;;11.32;100.00;97359.00;5046270;28;20501;-66
2023/01/22 11:25:57;;;;;;;1.88;1.75;;;;;;;11.27;100.00;97355.72;5041739;28;20364;-65
2023/01/22 11:28:40;;;;;;;0.80;0.80;;;;;;;11.25;100.00;97352.53;5045833;28;20115;-61
2023/01/22 11:31:59;;;;;;;1.08;1.08;;;;;;;11.77;100.00;97352.72;5046745;28;20053;-66
2023/01/22 11:34:28;;;;;;;3.33;2.55;;;;;;;12.13;100.00;97363.22;5028475;28;20130;-62
2023/01/22 11:37:07;;;;;;;1.60;1.50;;;;;;;12.63;100.00;97357.22;5062825;28;20506;-65
2023/01/22 11:39:56;;;;;;;1.00;1.00;;;;;;;12.97;100.00;97305.25;5065107;28;20060;-66
2023/01/22 11:43:06;;;;;;;1.60;1.50;;;;;;;13.03;100.00;97351.84;5065533;28;20052;-66
2023/01/22 11:45:53;;;;;;;1.00;1.00;;;;;;;13.06;100.00;97353.88;5063516;28;20045;-61
2023/01/22 11:48:35;;;;;;;4.18;2.03;;;;;;;12.93;100.00;97344.13;5065534;28;20072;-60
2023/01/22 11:51:14;;;;;;;2.72;2.47;;;;;;;12.85;97.90;97352.78;5064493;28;20090;-61
2023/01/22 11:54:07;;;;;;;0.90;0.90;;;;;;;12.65;100.00;97354.88;5060364;28;20095;-65